sensor_id;sensor_type;location;lat;lon;timestamp;noise_LAeq;noise_LA_min;noise_LA_max;noise_LA01;noise_LA95
64996;Laerm;51545;51.568;6.998;2023-11-21T00:00:22;39.33;32.92;54.03;;
64996;Laerm;51545;51.568;6.998;2023-11-21T00:02:48;40.82;32.71;56.62;;
64996;Laerm;51545;51.568;6.998;2023-11-21T00:05:14;37.81;33.20;44.96;;
64996;Laerm;51545;51.568;6.998;2023-11-21T00:07:42;38.58;33.11;49.51;;
64996;Laerm;51545;51.568;6.998;2023-11-21T00:10:08;38.27;32.88;45.10;;
64996;Laerm;51545;51.568;6.998;2023-11-21T00:12:35;37.85;33.17;44.11;;
64996;Laerm;51545;51.568;6.998;2023-11-21T00:15:02;40.64;33.92;48.82;;
64996;Laerm;51545;51.568;6.998;2023-11-21T00:17:28;36.38;30.74;47.63;;
64996;Laerm;51545;51.568;6.998;2023-11-21T00:19:54;37.20;30.70;44.32;;
64996;Laerm;51545;51.568;6.998;2023-11-21T00:22:21;36.32;30.83;43.69;;
64996;Laerm;51545;51.568;6.998;2023-11-21T00:24:47;38.09;32.78;47.61;;
64996;Laerm;51545;51.568;6.998;2023-11-21T00:27:14;37.69;32.90;44.18;;
64996;Laerm;51545;51.568;6.998;2023-11-21T00:29:40;36.04;31.53;42.29;;
64996;Laerm;51545;51.568;6.998;2023-11-21T00:32:06;37.18;31.28;48.32;;
64996;Laerm;51545;51.568;6.998;2023-11-21T00:34:33;38.02;31.35;45.73;;
64996;Laerm;51545;51.568;6.998;2023-11-21T00:36:59;37.92;31.48;48.85;;
64996;Laerm;51545;51.568;6.998;2023-11-21T00:39:26;37.50;31.74;45.21;;
64996;Laerm;51545;51.568;6.998;2023-11-21T00:41:52;37.28;30.47;50.98;;
64996;Laerm;51545;51.568;6.998;2023-11-21T00:44:18;35.71;30.24;40.19;;
64996;Laerm;51545;51.568;6.998;2023-11-21T00:46:44;36.69;30.93;47.07;;
64996;Laerm;51545;51.568;6.998;2023-11-21T00:49:10;36.77;31.11;43.09;;
64996;Laerm;51545;51.568;6.998;2023-11-21T00:51:36;35.82;31.07;43.80;;
64996;Laerm;51545;51.568;6.998;2023-11-21T00:54:02;36.25;32.21;41.05;;
64996;Laerm;51545;51.568;6.998;2023-11-21T00:56:28;36.80;31.20;49.87;;
64996;Laerm;51545;51.568;6.998;2023-11-21T00:58:54;38.05;31.02;48.30;;
64996;Laerm;51545;51.568;6.998;2023-11-21T01:01:23;37.45;30.98;50.40;;
64996;Laerm;51545;51.568;6.998;2023-11-21T01:03:50;37.38;31.56;43.58;;
64996;Laerm;51545;51.568;6.998;2023-11-21T01:06:16;39.89;31.28;47.53;;
64996;Laerm;51545;51.568;6.998;2023-11-21T01:08:43;35.99;31.35;51.37;;
64996;Laerm;51545;51.568;6.998;2023-11-21T01:11:12;37.16;31.62;48.60;;
64996;Laerm;51545;51.568;6.998;2023-11-21T01:13:39;36.68;32.16;42.47;;
64996;Laerm;51545;51.568;6.998;2023-11-21T01:16:06;37.03;31.29;44.89;;
64996;Laerm;51545;51.568;6.998;2023-11-21T01:18:32;37.43;32.69;45.99;;
64996;Laerm;51545;51.568;6.998;2023-11-21T01:21:00;34.35;31.64;38.12;;
64996;Laerm;51545;51.568;6.998;2023-11-21T01:23:27;37.69;32.60;44.52;;
64996;Laerm;51545;51.568;6.998;2023-11-21T01:25:55;36.97;33.56;41.47;;
64996;Laerm;51545;51.568;6.998;2023-11-21T01:28:22;37.32;33.36;42.34;;
64996;Laerm;51545;51.568;6.998;2023-11-21T01:30:48;37.21;32.79;41.37;;
64996;Laerm;51545;51.568;6.998;2023-11-21T01:33:15;37.25;33.93;43.23;;
64996;Laerm;51545;51.568;6.998;2023-11-21T01:35:42;36.74;32.86;42.66;;
64996;Laerm;51545;51.568;6.998;2023-11-21T01:38:08;37.38;31.17;45.68;;
64996;Laerm;51545;51.568;6.998;2023-11-21T01:40:34;37.78;33.89;43.53;;
64996;Laerm;51545;51.568;6.998;2023-11-21T01:43:03;38.65;34.22;43.27;;
64996;Laerm;51545;51.568;6.998;2023-11-21T01:45:31;38.92;34.48;44.25;;
64996;Laerm;51545;51.568;6.998;2023-11-21T01:48:00;39.26;33.10;47.65;;
64996;Laerm;51545;51.568;6.998;2023-11-21T01:50:28;38.21;33.60;46.98;;
64996;Laerm;51545;51.568;6.998;2023-11-21T01:52:55;35.84;32.02;42.72;;
64996;Laerm;51545;51.568;6.998;2023-11-21T01:55:21;37.02;32.86;42.43;;
64996;Laerm;51545;51.568;6.998;2023-11-21T01:57:48;38.74;34.26;43.65;;
64996;Laerm;51545;51.568;6.998;2023-11-21T02:00:17;37.95;33.56;44.82;;
64996;Laerm;51545;51.568;6.998;2023-11-21T02:02:48;38.89;34.42;44.07;;
64996;Laerm;51545;51.568;6.998;2023-11-21T02:05:17;37.88;33.83;44.44;;
64996;Laerm;51545;51.568;6.998;2023-11-21T02:07:45;37.09;32.62;42.57;;
64996;Laerm;51545;51.568;6.998;2023-11-21T02:10:18;37.65;33.94;44.10;;
64996;Laerm;51545;51.568;6.998;2023-11-21T02:12:51;39.17;35.79;43.67;;
64996;Laerm;51545;51.568;6.998;2023-11-21T02:15:20;39.36;35.49;47.41;;
64996;Laerm;51545;51.568;6.998;2023-11-21T02:17:47;38.89;35.02;46.16;;
64996;Laerm;51545;51.568;6.998;2023-11-21T02:20:20;39.26;35.00;44.37;;
64996;Laerm;51545;51.568;6.998;2023-11-21T02:23:01;37.46;32.92;45.91;;
64996;Laerm;51545;51.568;6.998;2023-11-21T02:25:28;38.36;34.08;42.98;;
64996;Laerm;51545;51.568;6.998;2023-11-21T02:27:56;38.03;34.46;46.57;;
64996;Laerm;51545;51.568;6.998;2023-11-21T02:30:22;39.46;33.71;46.27;;
64996;Laerm;51545;51.568;6.998;2023-11-21T02:32:48;39.25;34.37;49.22;;
64996;Laerm;51545;51.568;6.998;2023-11-21T02:35:15;40.15;34.46;53.10;;
64996;Laerm;51545;51.568;6.998;2023-11-21T02:37:42;39.88;35.08;48.13;;
64996;Laerm;51545;51.568;6.998;2023-11-21T02:40:12;38.72;34.73;44.17;;
64996;Laerm;51545;51.568;6.998;2023-11-21T02:42:41;39.51;35.30;45.68;;
64996;Laerm;51545;51.568;6.998;2023-11-21T02:45:08;38.55;32.99;44.13;;
64996;Laerm;51545;51.568;6.998;2023-11-21T02:47:34;38.55;34.50;42.70;;
64996;Laerm;51545;51.568;6.998;2023-11-21T02:50:00;41.42;35.98;50.72;;
64996;Laerm;51545;51.568;6.998;2023-11-21T02:52:26;43.08;34.53;54.33;;
64996;Laerm;51545;51.568;6.998;2023-11-21T02:54:52;38.56;34.11;44.04;;
64996;Laerm;51545;51.568;6.998;2023-11-21T02:57:19;37.83;33.13;43.79;;
64996;Laerm;51545;51.568;6.998;2023-11-21T02:59:45;38.39;33.77;48.49;;
64996;Laerm;51545;51.568;6.998;2023-11-21T03:02:11;38.13;35.05;41.36;;
64996;Laerm;51545;51.568;6.998;2023-11-21T03:04:37;39.42;35.68;48.00;;
64996;Laerm;51545;51.568;6.998;2023-11-21T03:07:03;37.92;33.95;47.28;;
64996;Laerm;51545;51.568;6.998;2023-11-21T03:09:31;40.92;35.09;51.12;;
64996;Laerm;51545;51.568;6.998;2023-11-21T03:11:56;39.26;35.26;44.71;;
64996;Laerm;51545;51.568;6.998;2023-11-21T03:14:23;40.88;35.67;48.39;;
64996;Laerm;51545;51.568;6.998;2023-11-21T03:16:49;42.49;35.46;59.41;;
64996;Laerm;51545;51.568;6.998;2023-11-21T03:19:15;41.11;37.71;51.23;;
64996;Laerm;51545;51.568;6.998;2023-11-21T03:21:41;39.89;35.54;47.88;;
64996;Laerm;51545;51.568;6.998;2023-11-21T03:24:07;40.67;37.83;44.82;;
64996;Laerm;51545;51.568;6.998;2023-11-21T03:26:33;41.13;37.69;46.88;;
64996;Laerm;51545;51.568;6.998;2023-11-21T03:28:59;41.11;37.63;46.86;;
64996;Laerm;51545;51.568;6.998;2023-11-21T03:31:26;40.97;36.67;49.06;;
64996;Laerm;51545;51.568;6.998;2023-11-21T03:33:53;43.49;36.83;52.03;;
64996;Laerm;51545;51.568;6.998;2023-11-21T03:36:20;40.78;37.76;45.60;;
64996;Laerm;51545;51.568;6.998;2023-11-21T03:38:48;40.15;37.19;45.89;;
64996;Laerm;51545;51.568;6.998;2023-11-21T03:41:14;41.57;37.19;46.25;;
64996;Laerm;51545;51.568;6.998;2023-11-21T03:43:40;41.87;38.48;45.99;;
64996;Laerm;51545;51.568;6.998;2023-11-21T03:46:07;42.27;38.62;48.51;;
64996;Laerm;51545;51.568;6.998;2023-11-21T03:48:33;42.51;39.12;47.34;;
64996;Laerm;51545;51.568;6.998;2023-11-21T03:50:59;42.10;38.26;47.79;;
64996;Laerm;51545;51.568;6.998;2023-11-21T03:53:25;41.86;38.02;49.32;;
64996;Laerm;51545;51.568;6.998;2023-11-21T03:55:51;41.60;38.60;48.36;;
64996;Laerm;51545;51.568;6.998;2023-11-21T03:58:17;42.35;39.01;47.46;;
64996;Laerm;51545;51.568;6.998;2023-11-21T04:00:43;43.34;39.88;50.94;;
64996;Laerm;51545;51.568;6.998;2023-11-21T04:03:08;45.14;38.99;58.48;;
64996;Laerm;51545;51.568;6.998;2023-11-21T04:05:34;45.05;40.64;52.63;;
64996;Laerm;51545;51.568;6.998;2023-11-21T04:08:00;43.47;40.00;47.64;;
64996;Laerm;51545;51.568;6.998;2023-11-21T04:10:26;43.12;40.26;48.69;;
64996;Laerm;51545;51.568;6.998;2023-11-21T04:12:52;44.42;40.88;48.44;;
64996;Laerm;51545;51.568;6.998;2023-11-21T04:15:18;43.78;40.30;50.80;;
64996;Laerm;51545;51.568;6.998;2023-11-21T04:17:45;43.14;39.75;46.70;;
64996;Laerm;51545;51.568;6.998;2023-11-21T04:20:11;43.59;39.27;48.24;;
64996;Laerm;51545;51.568;6.998;2023-11-21T04:22:41;43.50;40.21;48.89;;
64996;Laerm;51545;51.568;6.998;2023-11-21T04:25:12;43.04;40.14;46.93;;
64996;Laerm;51545;51.568;6.998;2023-11-21T04:27:40;43.30;40.02;50.02;;
64996;Laerm;51545;51.568;6.998;2023-11-21T04:30:07;44.65;40.62;57.87;;
64996;Laerm;51545;51.568;6.998;2023-11-21T04:32:33;45.12;40.77;51.70;;
64996;Laerm;51545;51.568;6.998;2023-11-21T04:34:59;43.48;40.93;46.78;;
64996;Laerm;51545;51.568;6.998;2023-11-21T04:37:25;42.75;39.99;46.54;;
64996;Laerm;51545;51.568;6.998;2023-11-21T04:39:51;44.36;40.31;51.86;;
64996;Laerm;51545;51.568;6.998;2023-11-21T04:42:17;43.96;40.60;54.50;;
64996;Laerm;51545;51.568;6.998;2023-11-21T04:44:44;43.25;40.04;54.08;;
64996;Laerm;51545;51.568;6.998;2023-11-21T04:47:10;44.79;40.62;61.19;;
64996;Laerm;51545;51.568;6.998;2023-11-21T04:49:36;43.79;40.17;52.75;;
64996;Laerm;51545;51.568;6.998;2023-11-21T04:52:03;44.09;41.38;48.88;;
64996;Laerm;51545;51.568;6.998;2023-11-21T04:54:31;44.98;40.48;51.23;;
64996;Laerm;51545;51.568;6.998;2023-11-21T04:56:57;44.41;41.07;52.39;;
64996;Laerm;51545;51.568;6.998;2023-11-21T04:59:27;43.28;39.48;49.16;;
64996;Laerm;51545;51.568;6.998;2023-11-21T05:01:53;45.10;38.87;59.96;;
64996;Laerm;51545;51.568;6.998;2023-11-21T05:04:21;43.12;39.27;55.31;;
64996;Laerm;51545;51.568;6.998;2023-11-21T05:06:49;42.51;39.67;47.05;;
64996;Laerm;51545;51.568;6.998;2023-11-21T05:09:16;43.18;39.81;51.27;;
64996;Laerm;51545;51.568;6.998;2023-11-21T05:11:42;44.96;40.22;59.80;;
64996;Laerm;51545;51.568;6.998;2023-11-21T05:14:08;45.31;41.71;54.90;;
64996;Laerm;51545;51.568;6.998;2023-11-21T05:16:35;45.62;42.50;49.38;;
64996;Laerm;51545;51.568;6.998;2023-11-21T05:19:01;45.80;42.66;50.20;;
64996;Laerm;51545;51.568;6.998;2023-11-21T05:21:28;47.22;42.64;56.46;;
64996;Laerm;51545;51.568;6.998;2023-11-21T05:23:55;44.69;40.61;55.37;;
64996;Laerm;51545;51.568;6.998;2023-11-21T05:26:21;45.54;42.00;51.33;;
64996;Laerm;51545;51.568;6.998;2023-11-21T05:28:47;45.62;42.11;66.70;;
64996;Laerm;51545;51.568;6.998;2023-11-21T05:31:13;46.45;41.81;52.95;;
64996;Laerm;51545;51.568;6.998;2023-11-21T05:33:40;45.32;41.40;51.20;;
64996;Laerm;51545;51.568;6.998;2023-11-21T05:36:08;44.73;41.22;51.28;;
64996;Laerm;51545;51.568;6.998;2023-11-21T05:38:36;45.29;42.39;52.38;;
64996;Laerm;51545;51.568;6.998;2023-11-21T05:41:03;45.19;41.17;53.92;;
64996;Laerm;51545;51.568;6.998;2023-11-21T05:43:30;44.40;40.66;54.00;;
64996;Laerm;51545;51.568;6.998;2023-11-21T05:45:58;44.82;40.90;53.40;;
64996;Laerm;51545;51.568;6.998;2023-11-21T05:48:25;45.42;42.48;56.05;;
64996;Laerm;51545;51.568;6.998;2023-11-21T05:50:52;45.71;40.75;53.88;;
64996;Laerm;51545;51.568;6.998;2023-11-21T05:53:18;45.97;41.79;56.17;;
64996;Laerm;51545;51.568;6.998;2023-11-21T05:55:43;44.76;40.87;53.74;;
64996;Laerm;51545;51.568;6.998;2023-11-21T05:58:09;48.63;42.97;63.30;;
64996;Laerm;51545;51.568;6.998;2023-11-21T06:00:37;45.69;41.00;53.39;;
64996;Laerm;51545;51.568;6.998;2023-11-21T06:03:06;45.81;41.57;54.85;;
64996;Laerm;51545;51.568;6.998;2023-11-21T06:05:34;45.69;40.40;51.67;;
64996;Laerm;51545;51.568;6.998;2023-11-21T06:08:08;45.81;41.06;52.85;;
64996;Laerm;51545;51.568;6.998;2023-11-21T06:10:34;46.19;42.62;59.59;;
64996;Laerm;51545;51.568;6.998;2023-11-21T06:13:04;46.87;42.35;58.36;;
64996;Laerm;51545;51.568;6.998;2023-11-21T06:15:35;46.45;41.95;56.28;;
64996;Laerm;51545;51.568;6.998;2023-11-21T06:18:10;45.46;39.84;62.71;;
64996;Laerm;51545;51.568;6.998;2023-11-21T06:20:37;50.58;42.12;63.66;;
64996;Laerm;51545;51.568;6.998;2023-11-21T06:23:04;47.48;42.32;68.58;;
64996;Laerm;51545;51.568;6.998;2023-11-21T06:25:33;47.93;43.02;59.95;;
64996;Laerm;51545;51.568;6.998;2023-11-21T06:28:01;49.36;42.31;73.27;;
64996;Laerm;51545;51.568;6.998;2023-11-21T06:30:28;51.60;42.73;79.73;;
64996;Laerm;51545;51.568;6.998;2023-11-21T06:32:56;50.89;43.04;78.55;;
64996;Laerm;51545;51.568;6.998;2023-11-21T06:35:22;46.50;40.97;62.22;;
64996;Laerm;51545;51.568;6.998;2023-11-21T06:37:48;46.45;41.20;55.52;;
64996;Laerm;51545;51.568;6.998;2023-11-21T06:40:15;46.96;41.58;61.05;;
64996;Laerm;51545;51.568;6.998;2023-11-21T06:42:41;47.19;42.53;58.63;;
64996;Laerm;51545;51.568;6.998;2023-11-21T06:45:08;47.46;42.94;58.39;;
64996;Laerm;51545;51.568;6.998;2023-11-21T06:47:38;52.98;41.85;76.30;;
64996;Laerm;51545;51.568;6.998;2023-11-21T06:50:04;47.60;41.03;57.35;;
64996;Laerm;51545;51.568;6.998;2023-11-21T06:52:30;47.13;40.45;57.73;;
64996;Laerm;51545;51.568;6.998;2023-11-21T06:54:56;45.30;41.24;57.35;;
64996;Laerm;51545;51.568;6.998;2023-11-21T06:57:23;43.08;39.73;49.50;;
64996;Laerm;51545;51.568;6.998;2023-11-21T06:59:50;45.69;40.63;55.42;;
64996;Laerm;51545;51.568;6.998;2023-11-21T07:02:18;44.55;39.72;62.22;;
64996;Laerm;51545;51.568;6.998;2023-11-21T07:04:46;44.45;40.74;52.27;;
64996;Laerm;51545;51.568;6.998;2023-11-21T07:07:12;46.89;40.44;61.30;;
64996;Laerm;51545;51.568;6.998;2023-11-21T07:09:39;50.42;39.93;67.90;;
64996;Laerm;51545;51.568;6.998;2023-11-21T07:12:07;45.30;40.57;56.21;;
64996;Laerm;51545;51.568;6.998;2023-11-21T07:14:34;46.67;41.45;63.29;;
64996;Laerm;51545;51.568;6.998;2023-11-21T07:17:00;47.36;41.66;60.80;;
64996;Laerm;51545;51.568;6.998;2023-11-21T07:19:26;54.62;40.22;82.80;;
64996;Laerm;51545;51.568;6.998;2023-11-21T07:21:52;47.92;41.24;76.24;;
64996;Laerm;51545;51.568;6.998;2023-11-21T07:24:19;48.25;42.39;61.67;;
64996;Laerm;51545;51.568;6.998;2023-11-21T07:26:45;45.02;41.94;57.28;;
64996;Laerm;51545;51.568;6.998;2023-11-21T07:29:11;46.24;42.47;59.76;;
64996;Laerm;51545;51.568;6.998;2023-11-21T07:31:39;47.77;41.56;59.96;;
64996;Laerm;51545;51.568;6.998;2023-11-21T07:34:08;44.71;40.89;48.03;;
64996;Laerm;51545;51.568;6.998;2023-11-21T07:36:34;45.84;42.46;64.47;;
64996;Laerm;51545;51.568;6.998;2023-11-21T07:39:02;46.45;41.08;58.51;;
64996;Laerm;51545;51.568;6.998;2023-11-21T07:41:29;45.07;41.20;58.34;;
64996;Laerm;51545;51.568;6.998;2023-11-21T07:43:56;46.83;41.34;69.96;;
64996;Laerm;51545;51.568;6.998;2023-11-21T07:46:22;47.04;42.75;58.87;;
64996;Laerm;51545;51.568;6.998;2023-11-21T07:48:49;48.66;41.60;68.22;;
64996;Laerm;51545;51.568;6.998;2023-11-21T07:51:17;44.92;40.78;53.55;;
64996;Laerm;51545;51.568;6.998;2023-11-21T07:53:42;50.66;40.72;76.41;;
64996;Laerm;51545;51.568;6.998;2023-11-21T07:56:09;46.31;39.66;63.02;;
64996;Laerm;51545;51.568;6.998;2023-11-21T07:58:35;43.72;39.97;55.06;;
64996;Laerm;51545;51.568;6.998;2023-11-21T08:01:03;45.07;41.47;53.44;;
64996;Laerm;51545;51.568;6.998;2023-11-21T08:03:32;54.01;42.15;72.52;;
64996;Laerm;51545;51.568;6.998;2023-11-21T08:05:58;63.81;45.47;82.32;;
64996;Laerm;51545;51.568;6.998;2023-11-21T08:08:25;51.76;41.25;70.93;;
64996;Laerm;51545;51.568;6.998;2023-11-21T08:10:58;53.26;40.31;71.53;;
64996;Laerm;51545;51.568;6.998;2023-11-21T08:13:26;45.55;40.29;56.64;;
64996;Laerm;51545;51.568;6.998;2023-11-21T08:16:02;58.89;40.99;88.49;;
64996;Laerm;51545;51.568;6.998;2023-11-21T08:18:31;46.65;42.52;59.02;;
64996;Laerm;51545;51.568;6.998;2023-11-21T08:20:58;57.40;41.30;80.93;;
64996;Laerm;51545;51.568;6.998;2023-11-21T08:23:27;45.02;41.52;62.07;;
64996;Laerm;51545;51.568;6.998;2023-11-21T08:25:53;46.83;40.91;63.90;;
64996;Laerm;51545;51.568;6.998;2023-11-21T08:28:25;44.44;40.28;52.51;;
64996;Laerm;51545;51.568;6.998;2023-11-21T08:30:52;47.14;41.47;58.77;;
64996;Laerm;51545;51.568;6.998;2023-11-21T08:33:19;44.07;41.01;53.19;;
64996;Laerm;51545;51.568;6.998;2023-11-21T08:35:46;43.21;39.70;51.43;;
64996;Laerm;51545;51.568;6.998;2023-11-21T08:38:12;46.59;40.44;64.95;;
64996;Laerm;51545;51.568;6.998;2023-11-21T08:40:38;44.04;40.09;52.24;;
64996;Laerm;51545;51.568;6.998;2023-11-21T08:43:04;44.93;39.91;59.99;;
64996;Laerm;51545;51.568;6.998;2023-11-21T08:45:31;46.37;41.80;62.00;;
64996;Laerm;51545;51.568;6.998;2023-11-21T08:48:00;43.98;38.72;58.36;;
64996;Laerm;51545;51.568;6.998;2023-11-21T08:50:26;45.03;40.28;60.58;;
64996;Laerm;51545;51.568;6.998;2023-11-21T08:52:52;44.55;40.62;60.81;;
64996;Laerm;51545;51.568;6.998;2023-11-21T08:55:20;45.80;41.28;65.63;;
64996;Laerm;51545;51.568;6.998;2023-11-21T08:57:48;44.80;38.83;61.82;;
64996;Laerm;51545;51.568;6.998;2023-11-21T09:00:17;44.47;40.47;58.14;;
64996;Laerm;51545;51.568;6.998;2023-11-21T09:02:43;47.96;40.49;69.22;;
64996;Laerm;51545;51.568;6.998;2023-11-21T09:05:11;60.54;42.09;81.53;;
64996;Laerm;51545;51.568;6.998;2023-11-21T09:07:39;58.31;43.24;78.36;;
64996;Laerm;51545;51.568;6.998;2023-11-21T09:10:07;53.20;39.76;71.12;;
64996;Laerm;51545;51.568;6.998;2023-11-21T09:12:36;45.54;40.68;66.75;;
64996;Laerm;51545;51.568;6.998;2023-11-21T09:15:05;47.86;39.81;73.27;;
64996;Laerm;51545;51.568;6.998;2023-11-21T09:17:34;45.02;40.51;63.71;;
64996;Laerm;51545;51.568;6.998;2023-11-21T09:20:00;50.23;41.24;71.35;;
64996;Laerm;51545;51.568;6.998;2023-11-21T09:22:29;45.66;40.83;58.11;;
64996;Laerm;51545;51.568;6.998;2023-11-21T09:24:57;55.77;40.74;82.84;;
64996;Laerm;51545;51.568;6.998;2023-11-21T09:27:24;49.02;41.14;73.00;;
64996;Laerm;51545;51.568;6.998;2023-11-21T09:29:52;43.90;38.85;56.99;;
64996;Laerm;51545;51.568;6.998;2023-11-21T09:32:21;43.59;40.36;53.44;;
64996;Laerm;51545;51.568;6.998;2023-11-21T09:34:48;53.16;40.80;80.77;;
64996;Laerm;51545;51.568;6.998;2023-11-21T09:37:15;48.83;40.85;65.79;;
64996;Laerm;51545;51.568;6.998;2023-11-21T09:39:41;45.69;42.16;60.41;;
64996;Laerm;51545;51.568;6.998;2023-11-21T09:42:12;53.60;39.60;78.91;;
64996;Laerm;51545;51.568;6.998;2023-11-21T09:44:48;44.90;40.55;62.46;;
64996;Laerm;51545;51.568;6.998;2023-11-21T09:47:17;56.99;40.65;83.70;;
64996;Laerm;51545;51.568;6.998;2023-11-21T09:49:49;51.11;41.61;79.89;;
64996;Laerm;51545;51.568;6.998;2023-11-21T09:52:27;48.81;39.81;69.96;;
64996;Laerm;51545;51.568;6.998;2023-11-21T09:54:54;45.78;39.56;67.17;;
64996;Laerm;51545;51.568;6.998;2023-11-21T09:57:24;46.39;40.95;61.04;;
64996;Laerm;51545;51.568;6.998;2023-11-21T09:59:55;49.12;41.54;64.06;;
64996;Laerm;51545;51.568;6.998;2023-11-21T10:02:26;47.97;42.16;67.45;;
64996;Laerm;51545;51.568;6.998;2023-11-21T10:04:54;46.24;41.81;59.40;;
64996;Laerm;51545;51.568;6.998;2023-11-21T10:07:21;57.50;42.93;84.54;;
64996;Laerm;51545;51.568;6.998;2023-11-21T10:09:51;50.26;41.47;77.09;;
64996;Laerm;51545;51.568;6.998;2023-11-21T10:12:17;44.77;40.57;58.46;;
64996;Laerm;51545;51.568;6.998;2023-11-21T10:14:48;45.14;40.50;58.52;;
64996;Laerm;51545;51.568;6.998;2023-11-21T10:17:18;45.27;41.31;63.30;;
64996;Laerm;51545;51.568;6.998;2023-11-21T10:19:47;45.93;40.64;69.12;;
64996;Laerm;51545;51.568;6.998;2023-11-21T10:22:16;44.15;40.34;53.01;;
64996;Laerm;51545;51.568;6.998;2023-11-21T10:24:43;45.59;39.31;61.82;;
64996;Laerm;51545;51.568;6.998;2023-11-21T10:27:09;45.40;41.66;60.96;;
64996;Laerm;51545;51.568;6.998;2023-11-21T10:29:35;46.75;41.30;61.62;;
64996;Laerm;51545;51.568;6.998;2023-11-21T10:32:02;46.12;41.30;57.06;;
64996;Laerm;51545;51.568;6.998;2023-11-21T10:34:29;44.38;38.41;66.38;;
64996;Laerm;51545;51.568;6.998;2023-11-21T10:36:58;47.01;39.83;68.91;;
64996;Laerm;51545;51.568;6.998;2023-11-21T10:39:27;47.54;40.51;61.56;;
64996;Laerm;51545;51.568;6.998;2023-11-21T10:41:56;43.64;40.58;57.17;;
64996;Laerm;51545;51.568;6.998;2023-11-21T10:44:24;44.34;40.58;53.54;;
64996;Laerm;51545;51.568;6.998;2023-11-21T10:46:51;45.21;40.08;59.41;;
64996;Laerm;51545;51.568;6.998;2023-11-21T10:49:26;45.51;40.85;65.84;;
64996;Laerm;51545;51.568;6.998;2023-11-21T10:51:56;47.54;42.08;67.80;;
64996;Laerm;51545;51.568;6.998;2023-11-21T10:54:25;45.66;41.47;65.16;;
64996;Laerm;51545;51.568;6.998;2023-11-21T10:57:00;45.73;42.29;54.13;;
64996;Laerm;51545;51.568;6.998;2023-11-21T10:59:31;45.07;40.87;51.30;;
64996;Laerm;51545;51.568;6.998;2023-11-21T11:01:58;46.16;40.51;56.98;;
64996;Laerm;51545;51.568;6.998;2023-11-21T11:04:27;48.34;42.03;60.42;;
64996;Laerm;51545;51.568;6.998;2023-11-21T11:07:03;48.59;41.11;73.02;;
64996;Laerm;51545;51.568;6.998;2023-11-21T11:09:33;52.91;41.31;67.40;;
64996;Laerm;51545;51.568;6.998;2023-11-21T11:12:01;48.44;40.98;56.05;;
64996;Laerm;51545;51.568;6.998;2023-11-21T11:14:28;47.60;41.48;67.97;;
64996;Laerm;51545;51.568;6.998;2023-11-21T11:16:57;48.80;42.24;62.89;;
64996;Laerm;51545;51.568;6.998;2023-11-21T11:19:25;47.75;42.28;62.50;;
64996;Laerm;51545;51.568;6.998;2023-11-21T11:27:40;46.34;39.33;51.88;;
64996;Laerm;51545;51.568;6.998;2023-11-21T11:33:01;44.69;40.92;55.44;;
64996;Laerm;51545;51.568;6.998;2023-11-21T11:35:59;44.06;38.30;55.69;;
64996;Laerm;51545;51.568;6.998;2023-11-21T11:38:31;50.91;39.77;64.48;;
64996;Laerm;51545;51.568;6.998;2023-11-21T11:41:03;49.88;39.71;72.46;;
64996;Laerm;51545;51.568;6.998;2023-11-21T11:43:32;50.54;41.17;75.49;;
64996;Laerm;51545;51.568;6.998;2023-11-21T11:46:02;52.01;41.68;68.45;;
64996;Laerm;51545;51.568;6.998;2023-11-21T11:48:29;45.06;41.26;57.42;;
64996;Laerm;51545;51.568;6.998;2023-11-21T11:51:21;46.18;39.87;58.72;;
64996;Laerm;51545;51.568;6.998;2023-11-21T11:53:48;45.44;40.20;60.67;;
64996;Laerm;51545;51.568;6.998;2023-11-21T11:56:29;45.71;41.09;65.89;;
64996;Laerm;51545;51.568;6.998;2023-11-21T11:59:03;45.19;41.21;54.31;;
64996;Laerm;51545;51.568;6.998;2023-11-21T12:01:32;47.44;42.34;63.77;;
64996;Laerm;51545;51.568;6.998;2023-11-21T12:04:34;46.20;41.93;64.93;;
64996;Laerm;51545;51.568;6.998;2023-11-21T12:07:07;45.24;41.50;51.22;;
64996;Laerm;51545;51.568;6.998;2023-11-21T12:09:33;46.20;40.90;60.23;;
64996;Laerm;51545;51.568;6.998;2023-11-21T12:12:00;45.77;41.89;61.73;;
64996;Laerm;51545;51.568;6.998;2023-11-21T12:14:27;50.39;39.28;68.69;;
64996;Laerm;51545;51.568;6.998;2023-11-21T12:16:54;44.95;41.18;57.13;;
64996;Laerm;51545;51.568;6.998;2023-11-21T12:19:21;44.19;39.13;65.69;;
64996;Laerm;51545;51.568;6.998;2023-11-21T12:21:48;45.51;40.19;58.06;;
64996;Laerm;51545;51.568;6.998;2023-11-21T12:24:16;46.44;39.93;64.98;;
64996;Laerm;51545;51.568;6.998;2023-11-21T12:26:43;52.91;42.13;69.06;;
64996;Laerm;51545;51.568;6.998;2023-11-21T12:29:10;46.52;41.23;59.92;;
64996;Laerm;51545;51.568;6.998;2023-11-21T12:31:36;49.09;40.32;58.89;;
64996;Laerm;51545;51.568;6.998;2023-11-21T12:34:03;46.39;41.19;55.37;;
64996;Laerm;51545;51.568;6.998;2023-11-21T12:36:30;45.07;40.31;66.07;;
64996;Laerm;51545;51.568;6.998;2023-11-21T12:38:56;43.40;39.25;54.19;;
64996;Laerm;51545;51.568;6.998;2023-11-21T12:41:22;44.66;39.87;54.89;;
64996;Laerm;51545;51.568;6.998;2023-11-21T12:43:48;46.40;41.46;67.69;;
64996;Laerm;51545;51.568;6.998;2023-11-21T12:46:15;46.15;42.71;52.47;;
64996;Laerm;51545;51.568;6.998;2023-11-21T12:48:44;45.45;42.23;49.01;;
64996;Laerm;51545;51.568;6.998;2023-11-21T12:51:12;46.24;41.79;61.60;;
64996;Laerm;51545;51.568;6.998;2023-11-21T12:53:40;45.42;41.98;53.19;;
64996;Laerm;51545;51.568;6.998;2023-11-21T12:56:13;45.46;42.78;62.36;;
64996;Laerm;51545;51.568;6.998;2023-11-21T12:58:46;46.55;42.87;57.78;;
64996;Laerm;51545;51.568;6.998;2023-11-21T13:01:18;45.54;42.15;51.35;;
64996;Laerm;51545;51.568;6.998;2023-11-21T13:03:51;46.38;42.09;57.93;;
64996;Laerm;51545;51.568;6.998;2023-11-21T13:06:17;46.82;41.99;66.19;;
64996;Laerm;51545;51.568;6.998;2023-11-21T13:08:45;48.65;44.09;65.91;;
64996;Laerm;51545;51.568;6.998;2023-11-21T13:11:11;50.09;45.19;67.33;;
64996;Laerm;51545;51.568;6.998;2023-11-21T13:13:42;46.95;43.86;52.15;;
64996;Laerm;51545;51.568;6.998;2023-11-21T13:16:11;47.76;43.54;59.25;;
64996;Laerm;51545;51.568;6.998;2023-11-21T13:18:41;49.20;43.59;62.80;;
64996;Laerm;51545;51.568;6.998;2023-11-21T13:21:13;48.58;45.90;52.91;;
64996;Laerm;51545;51.568;6.998;2023-11-21T13:23:42;47.89;43.95;58.98;;
64996;Laerm;51545;51.568;6.998;2023-11-21T13:26:09;48.56;45.29;57.21;;
64996;Laerm;51545;51.568;6.998;2023-11-21T13:28:37;50.96;44.33;59.51;;
64996;Laerm;51545;51.568;6.998;2023-11-21T13:31:09;47.92;44.04;51.95;;
64996;Laerm;51545;51.568;6.998;2023-11-21T13:33:38;47.75;44.45;52.12;;
64996;Laerm;51545;51.568;6.998;2023-11-21T13:36:09;47.64;44.53;53.78;;
64996;Laerm;51545;51.568;6.998;2023-11-21T13:38:37;48.81;45.16;55.34;;
64996;Laerm;51545;51.568;6.998;2023-11-21T13:41:09;49.60;45.21;58.07;;
64996;Laerm;51545;51.568;6.998;2023-11-21T13:43:38;48.96;44.27;56.20;;
64996;Laerm;51545;51.568;6.998;2023-11-21T13:46:13;47.27;42.13;57.29;;
64996;Laerm;51545;51.568;6.998;2023-11-21T13:48:45;47.40;42.80;62.00;;
64996;Laerm;51545;51.568;6.998;2023-11-21T13:51:20;49.54;43.64;74.90;;
64996;Laerm;51545;51.568;6.998;2023-11-21T13:53:55;48.56;44.34;56.13;;
64996;Laerm;51545;51.568;6.998;2023-11-21T13:56:24;48.54;42.98;61.44;;